| time (UTC) | temp C | wind direction | speed KPH | gust KPH | rain 1hr cm | rain 24hr cm | rain mn cm | humidity % | barometer mb |
| 20260510070016 | 9 | 315 | 20.9 | 30.6 | 0.00 | 0.20 | 0.00 | 97 | 1011.4 |
| 20260510065016 | 10 | 90 | 11.3 | 12.9 | 0.00 | 0.20 | 0.00 | 97 | 1010.7 |
| 20260510064016 | 10 | 90 | 11.3 | 12.9 | 0.00 | 0.20 | 0.00 | 98 | 1010.7 |
| 20260510063016 | 10 | 90 | 9.7 | 12.9 | 0.00 | 0.20 | 0.00 | 98 | 1010.7 |
| 20260510062016 | 11 | 113 | 4.8 | 8.0 | 0.00 | 0.20 | 0.00 | 98 | 1010.9 |
| 20260510061016 | 10 | 338 | 1.6 | 4.8 | 0.00 | 0.20 | 0.00 | 98 | 1011.0 |
| 20260510060017 | 10 | 338 | 11.3 | 16.1 | 0.00 | 0.20 | 0.00 | 97 | 1011.1 |
| 20260510055016 | 10 | 315 | 11.3 | 22.5 | 0.00 | 0.20 | 0.00 | 97 | 1011.1 |
| 20260510054016 | 11 | 90 | 14.5 | 24.1 | 0.00 | 0.20 | 0.00 | 96 | 1010.8 |
| 20260510053016 | 11 | 90 | 22.5 | 27.4 | 0.00 | 0.20 | 0.00 | 96 | 1010.5 |
| 20260510052021 | 11 | 90 | 22.5 | 24.1 | 0.00 | 0.20 | 0.00 | 96 | 1010.5 |
| 20260510051016 | 11 | 90 | 22.5 | 25.7 | 0.00 | 0.20 | 0.00 | 96 | 1010.6 |
| 20260510050022 | 11 | 90 | 20.9 | 25.7 | 0.00 | 0.20 | 0.00 | 96 | 1010.6 |
| 20260510045022 | 11 | 90 | 22.5 | 25.7 | 0.00 | 0.20 | 0.00 | 95 | 1010.6 |
| 20260510044021 | 11 | 90 | 20.9 | 24.1 | 0.00 | 0.20 | 0.00 | 96 | 1010.6 |
| 20260510043016 | 11 | 90 | 24.1 | 27.4 | 0.00 | 0.20 | 0.00 | 96 | 1010.7 |
| 20260510042016 | 11 | 90 | 20.9 | 24.1 | 0.00 | 0.20 | 0.00 | 95 | 1010.7 |
| 20260510041016 | 11 | 90 | 22.5 | 25.7 | 0.00 | 0.20 | 0.00 | 95 | 1010.8 |
| 20260510040037 | 11 | 90 | 22.5 | 25.7 | 0.00 | 0.20 | 0.20 | 95 | 1010.8 |
| 20260510035036 | 11 | 90 | 19.3 | 20.9 | 0.00 | 0.20 | 0.20 | 95 | 1010.7 |
| 20260510034016 | 11 | 90 | 20.9 | 22.5 | 0.00 | 0.20 | 0.20 | 96 | 1010.8 |
| 20260510033016 | 11 | 90 | 19.3 | 20.9 | 0.00 | 0.20 | 0.20 | 95 | 1010.8 |
| 20260510032016 | 11 | 90 | 20.9 | 22.5 | 0.00 | 0.20 | 0.20 | 94 | 1010.9 |
| 20260510031056 | 11 | 90 | 19.3 | 20.9 | 0.00 | 0.20 | 0.20 | 93 | 1010.7 |
| 20260510030016 | 11 | 90 | 19.3 | 22.5 | 0.00 | 0.20 | 0.20 | 93 | 1010.6 |
| 20260510025041 | 11 | 90 | 20.9 | 24.1 | 0.00 | 0.20 | 0.20 | 93 | 1010.7 |
| 20260510024016 | 11 | 90 | 20.9 | 24.1 | 0.00 | 0.20 | 0.20 | 94 | 1010.6 |
| 20260510023016 | 11 | 90 | 22.5 | 25.7 | 0.00 | 0.20 | 0.20 | 95 | 1010.5 |
| 20260510022016 | 11 | 90 | 22.5 | 27.4 | 0.00 | 0.20 | 0.20 | 95 | 1010.5 |
| 20260510021016 | 11 | 90 | 22.5 | 32.2 | 0.00 | 0.20 | 0.20 | 95 | 1010.3 |
| 20260510020016 | 11 | 90 | 24.1 | 29.0 | 0.00 | 0.20 | 0.20 | 96 | 1010.4 |
| 20260510015016 | 11 | 90 | 24.1 | 29.0 | 0.00 | 0.20 | 0.20 | 96 | 1010.0 |
| 20260510014026 | 11 | 90 | 22.5 | 27.4 | 0.00 | 0.20 | 0.20 | 96 | 1010.1 |
| 20260510013016 | 11 | 90 | 22.5 | 27.4 | 0.00 | 0.20 | 0.20 | 96 | 1010.1 |
| 20260510012016 | 11 | 90 | 20.9 | 24.1 | 0.00 | 0.20 | 0.20 | 96 | 1010.1 |
| 20260510011015 | 11 | 90 | 19.3 | 22.5 | 0.00 | 0.20 | 0.20 | 96 | 1010.0 |
| 20260510010016 | 11 | 90 | 20.9 | 25.7 | 0.00 | 0.20 | 0.20 | 96 | 1009.9 |
| 20260510005015 | 11 | 90 | 19.3 | 22.5 | 0.00 | 0.20 | 0.20 | 96 | 1009.9 |
| 20260510004036 | 11 | 90 | 20.9 | 25.7 | 0.00 | 0.20 | 0.20 | 95 | 1009.7 |
| 20260510003016 | 11 | 90 | 20.9 | 25.7 | 0.00 | 0.20 | 0.20 | 95 | 1009.6 |
| 20260510002056 | 12 | 90 | 22.5 | 27.4 | 0.00 | 0.20 | 0.20 | 94 | 1009.5 |
| 20260510001046 | 12 | 90 | 20.9 | 24.1 | 0.00 | 0.20 | 0.20 | 93 | 1009.5 |
| 20260510000036 | 12 | 90 | 19.3 | 22.5 | 0.00 | 0.20 | 0.20 | 91 | 1009.4 |
| 20260509235015 | 12 | 90 | 19.3 | 20.9 | 0.00 | 0.20 | 0.20 | 90 | 1009.4 |
| 20260509234055 | 12 | 90 | 19.3 | 24.1 | 0.00 | 0.20 | 0.20 | 89 | 1009.4 |
| 20260509233016 | 13 | 90 | 19.3 | 20.9 | 0.00 | 0.20 | 0.20 | 89 | 1009.4 |
| 20260509232015 | 13 | 90 | 14.5 | 17.7 | 0.00 | 0.20 | 0.20 | 87 | 1009.3 |
| 20260509231104 | 13 | 90 | 11.3 | 14.5 | 0.00 | 0.20 | 0.20 | 87 | 1009.4 |
| 20260509230016 | 13 | 90 | 8.0 | 9.7 | 0.00 | 0.20 | 0.20 | 86 | 1009.5 |
| 20260509225016 | 13 | 113 | 4.8 | 6.4 | 0.00 | 0.20 | 0.20 | 84 | 1009.5 |
| 20260509224016 | 13 | 113 | 1.6 | 4.8 | 0.00 | 0.20 | 0.20 | 83 | 1009.5 |
| 20260509223015 | 13 | 113 | 4.8 | 8.0 | 0.00 | 0.20 | 0.20 | 82 | 1009.5 |
| 20260509222036 | 14 | 158 | 1.6 | 3.2 | 0.00 | 0.20 | 0.20 | 79 | 1009.4 |
| 20260509221041 | 13 | 293 | 3.2 | 6.4 | 0.00 | 0.20 | 0.20 | 85 | 1009.5 |
| 20260509220017 | 13 | 315 | 4.8 | 9.7 | 0.00 | 0.20 | 0.20 | 87 | 1009.5 |
| 20260509215018 | 13 | 315 | 6.4 | 14.5 | 0.00 | 0.20 | 0.20 | 88 | 1009.7 |
| 20260509214037 | 12 | 293 | 9.7 | 14.5 | 0.00 | 0.20 | 0.20 | 89 | 1009.8 |
| 20260509213018 | 12 | 293 | 6.4 | 11.3 | 0.00 | 0.20 | 0.20 | 88 | 1009.8 |
| 20260509212018 | 12 | 293 | 1.6 | 3.2 | 0.00 | 0.20 | 0.20 | 88 | 1009.7 |
| 20260509211017 | 12 | 0.0 | 4.8 | 0.00 | 0.20 | 0.20 | 90 | 1009.6 | |
| 20260509210015 | 12 | 293 | 4.8 | 8.0 | 0.00 | 0.20 | 0.20 | 88 | 1009.7 |
| 20260509205037 | 12 | 315 | 8.0 | 11.3 | 0.00 | 0.20 | 0.20 | 89 | 1009.8 |
| 20260509204017 | 12 | 293 | 12.9 | 19.3 | 0.00 | 0.20 | 0.20 | 88 | 1010.0 |
| 20260509203017 | 12 | 315 | 14.5 | 24.1 | 0.00 | 0.20 | 0.20 | 88 | 1010.1 |
| 20260509202017 | 12 | 293 | 11.3 | 14.5 | 0.00 | 0.20 | 0.20 | 89 | 1010.2 |
| 20260509201028 | 12 | 270 | 6.4 | 11.3 | 0.00 | 0.20 | 0.20 | 88 | 1010.2 |
| 20260509200015 | 12 | 293 | 3.2 | 8.0 | 0.00 | 0.20 | 0.20 | 87 | 1010.1 |
| 20260509195022 | 12 | 225 | 1.6 | 4.8 | 0.00 | 0.20 | 0.20 | 87 | 1010.1 |
| 20260509194017 | 12 | 225 | 1.6 | 4.8 | 0.00 | 0.20 | 0.20 | 87 | 1010.3 |
| 20260509193017 | 12 | 248 | 3.2 | 8.0 | 0.00 | 0.20 | 0.20 | 84 | 1010.4 |
| 20260509192018 | 12 | 248 | 4.8 | 8.0 | 0.03 | 0.20 | 0.20 | 90 | 1010.4 |
| 20260509191017 | 11 | 113 | 3.2 | 8.0 | 0.03 | 0.20 | 0.20 | 95 | 1010.4 |
| 20260509190018 | 11 | 113 | 6.4 | 9.7 | 0.05 | 0.20 | 0.20 | 93 | 1010.4 |
| 20260509185015 | 11 | 113 | 3.2 | 4.8 | 0.05 | 0.20 | 0.20 | 94 | 1010.9 |
| 20260509184017 | 11 | 158 | 3.2 | 6.4 | 0.05 | 0.20 | 0.20 | 92 | 1011.1 |
| 20260509183022 | 11 | 180 | 6.4 | 11.3 | 0.05 | 0.20 | 0.20 | 91 | 1011.3 |
| 20260509182017 | 10 | 158 | 3.2 | 6.4 | 0.03 | 0.18 | 0.18 | 91 | 1011.2 |
| 20260509181017 | 10 | 135 | 3.2 | 4.8 | 0.03 | 0.18 | 0.18 | 92 | 1011.3 |
| 20260509180017 | 10 | 225 | 4.8 | 8.0 | 0.00 | 0.15 | 0.15 | 90 | 1011.4 |
| 20260509175017 | 10 | 248 | 3.2 | 8.0 | 0.00 | 0.15 | 0.15 | 91 | 1011.3 |
| 20260509174022 | 10 | 293 | 8.0 | 9.7 | 0.00 | 0.15 | 0.15 | 92 | 1011.4 |
| 20260509173018 | 10 | 248 | 8.0 | 11.3 | 0.03 | 0.15 | 0.15 | 92 | 1011.4 |
| 20260509172057 | 10 | 270 | 8.0 | 12.9 | 0.05 | 0.15 | 0.15 | 91 | 1011.5 |
| 20260509171022 | 10 | 293 | 3.2 | 8.0 | 0.08 | 0.15 | 0.15 | 93 | 1011.4 |
| 20260509170017 | 10 | 293 | 16.1 | 20.9 | 0.10 | 0.15 | 0.15 | 93 | 1011.1 |
| 20260509165037 | 10 | 315 | 19.3 | 22.5 | 0.13 | 0.15 | 0.15 | 92 | 1010.8 |
| 20260509164017 | 10 | 293 | 17.7 | 20.9 | 0.15 | 0.15 | 0.15 | 92 | 1010.9 |
| 20260509163022 | 10 | 293 | 11.3 | 14.5 | 0.13 | 0.13 | 0.13 | 91 | 1010.9 |
| 20260509162017 | 10 | 270 | 11.3 | 14.5 | 0.10 | 0.10 | 0.10 | 90 | 1011.3 |
| 20260509161017 | 11 | 270 | 9.7 | 11.3 | 0.08 | 0.08 | 0.08 | 86 | 1011.5 |
| 20260509160017 | 11 | 225 | 8.0 | 16.1 | 0.05 | 0.05 | 0.05 | 87 | 1011.7 |
| 20260509155017 | 11 | 225 | 9.7 | 17.7 | 0.03 | 0.03 | 0.03 | 85 | 1011.9 |
| 20260509154017 | 11 | 225 | 12.9 | 22.5 | 0.00 | 0.00 | 0.00 | 83 | 1012.1 |
| 20260509153037 | 12 | 225 | 14.5 | 20.9 | 0.00 | 0.00 | 0.00 | 80 | 1012.0 |
| 20260509152017 | 12 | 203 | 12.9 | 19.3 | 0.00 | 0.00 | 0.00 | 79 | 1012.2 |
| 20260509151022 | 12 | 225 | 12.9 | 20.9 | 0.00 | 0.00 | 0.00 | 79 | 1012.1 |
| 20260509150017 | 12 | 180 | 9.7 | 22.5 | 0.00 | 0.00 | 0.00 | 80 | 1012.1 |
| 20260509145057 | 12 | 158 | 11.3 | 19.3 | 0.00 | 0.00 | 0.00 | 80 | 1012.0 |
| 20260509144017 | 12 | 180 | 11.3 | 17.7 | 0.00 | 0.00 | 0.00 | 81 | 1011.9 |
| 20260509143037 | 12 | 158 | 12.9 | 20.9 | 0.00 | 0.00 | 0.00 | 82 | 1011.8 |
| 20260509142017 | 12 | 135 | 9.7 | 16.1 | 0.00 | 0.00 | 0.00 | 83 | 1011.6 |
| 20260509141017 | 12 | 135 | 11.3 | 17.7 | 0.00 | 0.00 | 0.00 | 82 | 1011.4 |
| 20260509140017 | 12 | 135 | 8.0 | 14.5 | 0.00 | 0.00 | 0.00 | 83 | 1011.3 |
| 20260509135017 | 12 | 158 | 11.3 | 17.7 | 0.00 | 0.00 | 0.00 | 82 | 1011.3 |
| 20260509134037 | 12 | 135 | 12.9 | 17.7 | 0.00 | 0.00 | 0.00 | 82 | 1011.3 |
| 20260509133042 | 12 | 158 | 9.7 | 14.5 | 0.00 | 0.00 | 0.00 | 83 | 1011.3 |
| 20260509132017 | 11 | 113 | 9.7 | 19.3 | 0.00 | 0.00 | 0.00 | 82 | 1011.4 |
| 20260509131021 | -17 | 0.0 | 0.0 | 0.00 | 0.00 | 0.00 | |||
| 20260509130017 | -17 | 0.0 | 0.0 | 0.00 | 0.00 | 0.00 | |||
| 20260509125613 | -17 | 0.0 | 0.0 | 0.00 | 0.00 | 0.00 | |||
| 20260509124522 | -17 | 0.0 | 0.0 | 0.00 | 0.00 | 0.00 | |||
| 20260509123516 | -17 | 0.0 | 0.0 | 0.00 | 0.00 | 0.00 | |||
| 20260509123014 | -17 | 0.0 | 0.0 | 0.00 | 0.00 | 0.00 | |||
| 20260509122016 | -17 | 0.0 | 0.0 | 0.00 | 0.00 | 0.00 | |||
| 20260509121017 | -17 | 0.0 | 0.0 | 0.00 | 0.00 | 0.00 | |||
| 20260509120614 | -17 | 0.0 | 0.0 | 0.00 | 0.00 | 0.00 | |||
| 20260509115522 | -17 | 0.0 | 0.0 | 0.00 | 0.00 | 0.00 | |||
| 20260509114517 | -17 | 0.0 | 0.0 | 0.00 | 0.00 | 0.00 | |||
| 20260509114129 | -17 | 0.0 | 0.0 | 0.00 | 0.00 | 0.00 | |||
| 20260509113016 | -17 | 0.0 | 0.0 | 0.00 | 0.00 | 0.00 | |||
| 20260509112036 | -17 | 0.0 | 0.0 | 0.00 | 0.00 | 0.00 | |||
| 20260509111611 | -17 | 0.0 | 0.0 | 0.00 | 0.00 | 0.00 | |||
| 20260509110517 | -17 | 0.0 | 0.0 | 0.00 | 0.00 | 0.00 | |||
| 20260509105537 | -17 | 0.0 | 0.0 | 0.00 | 0.00 | 0.00 | |||
| 20260509105111 | -17 | 0.0 | 0.0 | 0.00 | 0.00 | 0.00 | |||
| 20260509104016 | -17 | 0.0 | 0.0 | 0.00 | 0.00 | 0.00 | |||
| 20260509103017 | -17 | 0.0 | 0.0 | 0.00 | 0.00 | 0.00 | |||
| 20260509102652 | -17 | 0.0 | 0.0 | 0.00 | 0.00 | 0.00 | |||
| 20260509101516 | -17 | 0.0 | 0.0 | 0.00 | 0.00 | 0.00 | |||
| 20260509100517 | -17 | 0.0 | 0.0 | 0.00 | 0.00 | 0.00 | |||
| 20260509100133 | -17 | 0.0 | 0.0 | 0.00 | 0.00 | 0.00 | |||
| 20260509095016 | -17 | 0.0 | 0.0 | 0.00 | 0.00 | 0.00 | |||
| 20260509094016 | -17 | 0.0 | 0.0 | 0.00 | 0.00 | 0.00 | |||
| 20260509093633 | -17 | 0.0 | 0.0 | 0.00 | 0.00 | 0.00 | |||
| 20260509092517 | -17 | 0.0 | 0.0 | 0.00 | 0.00 | 0.00 | |||
| 20260509091516 | -17 | 0.0 | 0.0 | 0.00 | 0.00 | 0.00 | |||
| 20260509091052 | -17 | 0.0 | 0.0 | 0.00 | 0.00 | 0.00 | 80 | ||
| 20260509090539 | -17 | 158 | 11.3 | 17.7 | 0.00 | 0.00 | 0.00 | 80 | |
| 20260509085517 | 11 | 158 | 12.9 | 19.3 | 0.00 | 0.00 | 0.00 | 79 | 1011.2 |
| 20260509084536 | 11 | 158 | 16.1 | 24.1 | 0.00 | 0.00 | 0.00 | 78 | 1011.2 |
| 20260509083536 | 11 | 135 | 16.1 | 24.1 | 0.00 | 0.00 | 0.00 | 78 | 1011.1 |
| 20260509082526 | 11 | 135 | 16.1 | 24.1 | 0.00 | 0.00 | 0.00 | 78 | 1011.5 |
| 20260509081516 | 11 | 135 | 12.9 | 20.9 | 0.00 | 0.00 | 0.00 | 77 | 1011.5 |
| 20260509080516 | 11 | 135 | 11.3 | 19.3 | 0.00 | 0.00 | 0.00 | 77 | 1011.4 |
| 20260509075516 | 11 | 135 | 14.5 | 22.5 | 0.00 | 0.00 | 0.00 | 76 | 1011.4 |
| 20260509074516 | 11 | 113 | 12.9 | 16.1 | 0.00 | 0.00 | 0.00 | 75 | 1011.6 |
| 20260509073526 | 12 | 113 | 14.5 | 20.9 | 0.00 | 0.00 | 0.00 | 74 | 1011.6 |
| 20260509072516 | 11 | 113 | 16.1 | 20.9 | 0.00 | 0.00 | 0.00 | 74 | 1011.6 |
| 20260509071516 | 11 | 90 | 16.1 | 19.3 | 0.00 | 0.00 | 0.00 | 73 | 1011.5 |
| 20260509070527 | 11 | 90 | 12.9 | 16.1 | 0.00 | 0.00 | 0.00 | 73 | 1011.4 |